KRHV/RHV METAR and TAF weather

Enter ICAO airport designator
Station Type Date Time Source
KRHV METAR 2021/09/16 20:47 UTC NOAA

KRHV 162047Z 27005KT 10SM SKC 25/09 A2983


Station Type Date Time Source
KRHV Decoded METAR 2021/09/16 20:47 UTC NOAA

San Jose / Reid / Hillv, CA, United States (KRHV) 37-20N 121-49W
Sep 16, 2021 - 04:47 PM EDT / 2021.09.16 2047 UTC
Wind: from the W (270 degrees) at 6 MPH (5 KT):0
Visibility: 10 mile(s):0
Sky conditions: clear
Temperature: 77 F (25 C)
Dew Point: 48 F (9 C)
Relative Humidity: 36%
Pressure (altimeter): 29.83 in. Hg (1010 hPa)
ob: KRHV 162047Z 27005KT 10SM SKC 25/09 A2983
cycle: 21

Station Type Date Time Source
KRHV TAF UTC NOAA

Error!

Example: see airport list